Data for 05/21/2017

Time Sea-Level Adjusted Pressure Absolute Pressure Temperature Relative Humidity Dew Point   
(mb) (inHg) (mb) (inHg) (C) (F) (%) (C) (F)
00:05 1024 30.24 853 25.19 4.9 40.8 84 2.5 36.5
00:10 1024 30.24 853 25.19 4.8 40.6 84 2.3 36.2
00:15 1024 30.24 853 25.19 4.7 40.5 84 2.3 36.1
00:20 1024 30.24 853 25.19 4.7 40.5 84 2.2 36
00:25 1024 30.24 853 25.19 4.7 40.5 83 2.1 35.8
00:30 1024 30.24 853 25.19 4.8 40.6 82 2 35.6
00:35 1024 30.24 853 25.19 4.8 40.7 81 1.9 35.3
00:40 1024 30.24 853 25.19 5 41.1 80 1.9 35.4
00:45 1024 30.24 853 25.19 5 41.1 81 2.1 35.8
00:50 1024 30.24 853 25.19 4.6 40.2 83 2 35.6
00:55 1024 30.24 853 25.19 4.3 39.7 84 1.9 35.3
01:00 1024 30.24 853 25.19 4.3 39.7 83 1.7 35.1
01:05 1024 30.24 853 25.19 4.2 39.6 83 1.6 34.9
01:10 1024 30.24 853 25.19 4.5 40.1 82 1.6 35
01:15 1024 30.24 853 25.19 4.5 40 82 1.7 35
01:20 1024 30.24 853 25.19 4.2 39.6 84 1.7 35.1
01:25 1024 30.24 853 25.19 4 39.2 84 1.6 34.9
01:30 1024 30.24 853 25.19 4.1 39.3 84 1.6 34.8
01:35 1024 30.24 853 25.19 3.9 39.1 85 1.6 35
01:40 1024 30.24 853 25.19 3.7 38.7 86 1.6 34.8
01:45 1024 30.24 853 25.19 3.6 38.5 86 1.5 34.8
01:50 1024 30.24 853 25.19 3.7 38.6 85 1.5 34.6
01:55 1024 30.24 853 25.19 3.7 38.7 85 1.5 34.6
02:00 1024 30.24 853 25.19 3.7 38.7 85 1.4 34.4
02:05 1024 30.24 853 25.19 3.7 38.6 84 1.3 34.3
02:10 1024 30.24 853 25.19 3.7 38.6 84 1.2 34.2
02:15 1024 30.24 853 25.19 3.6 38.5 84 1.2 34.1
02:20 1024 30.24 853 25.19 3.6 38.5 84 1.1 34
02:25 1024 30.24 853 25.19 3.7 38.6 84 1.2 34.1
02:30 1024 30.24 853 25.19 3.8 38.8 83 1.1 34.1
02:35 1024 30.24 853 25.19 3.6 38.6 84 1.2 34.1
02:40 1024 30.24 853 25.19 3.6 38.5 83 1.1 33.9
02:45 1024 30.24 854 25.22 3.5 38.4 84 1.1 34
02:50 1024 30.24 854 25.22 3.3 37.9 85 1 33.9
02:55 1024 30.24 854 25.22 3.2 37.8 86 1.1 33.9
03:00 1024 30.24 854 25.22 3.1 37.6 86 1 33.8
03:05 1024 30.24 854 25.22 2.9 37.3 87 1 33.8
03:10 1024 30.24 854 25.22 2.9 37.2 86 0.8 33.5
03:15 1024 30.24 854 25.22 2.9 37.2 86 0.8 33.4
03:20 1024 30.24 854 25.22 2.9 37.3 86 0.8 33.5
03:25 1025 30.27 854 25.22 2.9 37.2 87 0.9 33.6
03:30 1025 30.27 854 25.22 3 37.3 87 1 33.8
03:35 1025 30.27 854 25.22 3 37.5 87 1 33.9
03:40 1025 30.27 854 25.22 3.1 37.7 86 1.1 33.9
03:45 1025 30.27 854 25.22 3.1 37.7 86 1.1 33.9
03:50 1025 30.27 854 25.22 3.3 38 85 1 33.8
03:55 1025 30.27 854 25.22 3.2 37.7 85 0.9 33.6
04:00 1025 30.27 854 25.22 2.9 37.3 86 0.8 33.4
04:05 1025 30.27 854 25.22 2.9 37.1 86 0.7 33.3
04:10 1025 30.27 854 25.22 2.9 37.3 86 0.8 33.4
04:15 1025 30.27 854 25.22 3.1 37.5 85 0.8 33.4
04:20 1025 30.27 854 25.22 3.1 37.6 85 0.9 33.7
04:25 1025 30.27 854 25.22 3.2 37.7 85 1 33.7
04:30 1025 30.27 854 25.22 3.3 38 85 1 33.9
04:35 1025 30.27 854 25.22 3.3 37.9 85 1 33.7
04:40 1025 30.27 854 25.22 3.3 37.9 85 0.9 33.6
04:45 1025 30.27 854 25.22 3.1 37.5 85 0.8 33.4
04:50 1025 30.27 854 25.22 2.9 37.2 86 0.7 33.3
04:55 1025 30.27 854 25.22 2.8 37 86 0.7 33.2
05:00 1025 30.27 854 25.22 2.8 37 86 0.7 33.2
05:05 1025 30.27 854 25.22 2.7 36.9 86 0.6 33.1
05:10 1025 30.27 854 25.22 2.7 36.8 86 0.7 33.2
05:15 1025 30.27 854 25.22 2.8 37 86 0.7 33.2
05:20 1025 30.27 854 25.22 2.8 37.1 86 0.7 33.3
05:25 1025 30.27 854 25.22 3.1 37.5 85 0.8 33.5
05:30 1025 30.27 854 25.22 3.4 38 84 0.9 33.7
05:35 1025 30.27 854 25.22 3.5 38.4 84 1 33.9
05:40 1025 30.27 854 25.22 3.8 38.8 82 1 33.9
05:45 1025 30.27 855 25.25 4 39.2 81 1.1 34
05:50 1025 30.27 855 25.25 4.1 39.4 81 1.2 34.1
05:55 1025 30.27 855 25.25 4.1 39.4 81 1.2 34.1
06:00 1025 30.27 855 25.25 4.3 39.7 80 1.2 34.1
06:05 1025 30.27 855 25.25 4.5 40.2 79 1.2 34.2
06:10 1026 30.3 855 25.25 4.9 40.8 78 1.3 34.4
06:15 1026 30.3 855 25.25 5.1 41.2 77 1.5 34.7
06:20 1026 30.3 855 25.25 5.2 41.4 77 1.6 34.8
06:25 1026 30.3 855 25.25 5.7 42.2 74 1.4 34.6
06:30 1026 30.3 855 25.25 6.1 43 74 1.8 35.2
06:35 1026 30.3 855 25.25 6.5 43.7 71 1.7 35
06:40 1026 30.3 855 25.25 6.5 43.7 72 1.8 35.2
06:45 1026 30.3 855 25.25 6.7 44.1 71 1.8 35.2
06:50 1026 30.3 855 25.25 6.8 44.2 71 2 35.6
06:55 1026 30.3 855 25.25 7.1 44.8 70 2 35.6
07:00 1026 30.3 855 25.25 7.8 46.1 67 2.1 35.7
07:05 1026 30.3 855 25.25 8.4 47.2 66 2.5 36.4
07:10 1026 30.3 855 25.25 9 48.3 62 2.2 35.9
07:15 1026 30.3 855 25.25 9.2 48.6 63 2.6 36.8
07:20 1026 30.3 855 25.25 9.2 48.5 64 2.7 36.9
07:25 1026 30.3 855 25.25 9.2 48.6 63 2.5 36.5
07:30 1026 30.3 855 25.25 9.7 49.5 61 2.6 36.6
07:35 1026 30.3 855 25.25 10.1 50.1 60 2.8 37
07:40 1026 30.3 855 25.25 10.3 50.6 62 3.5 38.2
07:45 1026 30.3 855 25.25 10.4 50.7 60 3 37.5
07:50 1026 30.3 855 25.25 10.4 50.7 59 2.8 37.1
07:55 1026 30.3 855 25.25 10.3 50.5 60 3 37.4
08:00 1026 30.3 855 25.25 10.1 50.3 61 3 37.4
08:05 1026 30.3 855 25.25 10.7 51.3 58 2.9 37.2
08:10 1026 30.3 855 25.25 10.4 50.8 61 3.4 38.1
08:15 1026 30.3 855 25.25 10.3 50.5 60 3 37.3
08:20 1026 30.3 855 25.25 10.7 51.2 60 3.3 37.9
08:25 1026 30.3 855 25.25 11.2 52.1 58 3.2 37.8
08:30 1026 30.3 855 25.25 11.6 52.8 59 3.9 39.1
08:35 1026 30.3 855 25.25 10.5 50.8 63 3.7 38.7
08:40 1026 30.3 855 25.25 10.7 51.2 59 3.1 37.5
08:45 1026 30.3 855 25.25 11.1 52 59 3.5 38.2
08:50 1026 30.3 855 25.25 10.8 51.4 60 3.3 38
08:55 1026 30.3 855 25.25 10.6 51 62 3.7 38.6
09:00 1026 30.3 855 25.25 10.2 50.4 63 3.6 38.5
09:05 1026 30.3 855 25.25 10.7 51.2 61 3.5 38.4
09:10 1026 30.3 855 25.25 11 51.9 60 3.6 38.5
09:15 1026 30.3 855 25.25 11.2 52.1 61 4 39.2
09:20 1026 30.3 855 25.25 11.2 52.2 60 3.7 38.7
09:25 1026 30.3 855 25.25 11.2 52.1 60 3.8 38.8
09:30 1026 30.3 855 25.25 12 53.6 56 3.6 38.4
09:35 1026 30.3 855 25.25 12.6 54.6 53 3.2 37.7
09:40 1026 30.3 855 25.25 13.5 56.4 49 3 37.4
09:45 1026 30.3 855 25.25 14 57.3 48 3.3 37.9
09:50 1026 30.3 855 25.25 14 57.2 48 3.3 37.9
09:55 1026 30.3 855 25.25 14.1 57.3 44 2.1 35.7
10:00 1026 30.3 855 25.25 14.4 57.9 45 2.8 37
10:05 1026 30.3 855 25.25 14.2 57.6 45 2.6 36.7
10:10 1026 30.3 855 25.25 14.7 58.4 44 2.6 36.7
10:15 1026 30.3 855 25.25 15 59.1 44 2.9 37.3
10:20 1026 30.3 855 25.25 14.8 58.6 44 2.7 36.9
10:25 1026 30.3 855 25.25 13.8 56.8 48 3.1 37.5
10:30 1026 30.3 855 25.25 14.1 57.4 44 2.1 35.8
10:35 1026 30.3 855 25.25 15 58.9 43 2.4 36.4
10:40 1026 30.3 855 25.25 15.1 59.2 42 2.6 36.6
10:45 1026 30.3 855 25.25 14.6 58.3 42 2.1 35.8
10:50 1026 30.3 855 25.25 14.8 58.6 42 2.2 36
10:55 1026 30.3 855 25.25 15.3 59.5 43 2.9 37.2
11:00 1026 30.3 855 25.25 15 59 40 1.6 34.8
11:05 1026 30.3 855 25.25 15.4 59.7 40 2.1 35.8
11:10 1026 30.3 855 25.25 16 60.8 36 1.1 34
11:15 1026 30.3 855 25.25 15.1 59.2 38 0.9 33.6
11:20 1026 30.3 855 25.25 16 60.7 38 1.7 35.1
11:25 1026 30.3 855 25.25 16 60.8 37 1.3 34.3
11:30 1026 30.3 855 25.25 16 60.7 31 -0.9 30.4
11:35 1026 30.3 855 25.25 15.5 60 32 -0.9 30.3
11:40 1026 30.3 855 25.25 15.2 59.3 31 -1.6 29.1
11:45 1026 30.3 855 25.25 15.6 60.2 32 -0.7 30.7
11:50 1026 30.3 855 25.25 16.5 61.7 29 -1.4 29.5
11:55 1026 30.3 855 25.25 16.4 61.5 28 -2 28.5
12:00 1026 30.3 855 25.25 16.4 61.5 29 -1.6 29.2
12:05 1026 30.3 855 25.25 16.3 61.3 27 -2.5 27.6
12:10 1026 30.3 855 25.25 16.4 61.5 28 -2.3 27.9
12:15 1025 30.27 855 25.25 16.5 61.6 24 -4.1 24.5
12:20 1025 30.27 855 25.25 17.2 62.9 27 -1.8 28.8
12:25 1025 30.27 855 25.25 16.3 61.3 30 -1.2 29.9
12:30 1025 30.27 855 25.25 16.1 60.9 28 -2.2 28
12:35 1025 30.27 855 25.25 16.2 61.2 29 -1.6 29.1
12:40 1025 30.27 854 25.22 16.5 61.7 28 -2 28.5
12:45 1025 30.27 855 25.25 16.7 62 26 -2.8 27
12:50 1025 30.27 855 25.25 17.3 63.1 27 -1.7 28.9
12:55 1025 30.27 854 25.22 16.9 62.5 25 -3.2 26.3
13:00 1025 30.27 854 25.22 17.1 62.9 25 -2.8 27
13:05 1025 30.27 854 25.22 17.6 63.6 25 -2.8 27
13:10 1025 30.27 854 25.22 18 64.3 25 -2.2 28
13:15 1025 30.27 854 25.22 18 64.3 25 -2.1 28.2
13:20 1025 30.27 854 25.22 17.7 63.8 25 -2.4 27.7
13:25 1025 30.27 854 25.22 16.8 62.2 27 -2.3 27.9
13:30 1025 30.27 854 25.22 17.7 63.9 26 -2 28.4
13:35 1025 30.27 854 25.22 17.4 63.4 25 -2.5 27.5
13:40 1025 30.27 854 25.22 17.5 63.5 23 -3.6 25.6
13:45 1025 30.27 854 25.22 17 62.6 24 -3.5 25.8
13:50 1025 30.27 854 25.22 17.7 63.8 25 -2.3 27.9
13:55 1025 30.27 854 25.22 17.6 63.7 24 -2.9 26.8
14:00 1025 30.27 854 25.22 18.2 64.7 23 -3.3 26
14:05 1025 30.27 854 25.22 18.4 65.2 22 -3.4 25.9
14:10 1025 30.27 854 25.22 18.2 64.7 23 -2.9 26.7
14:15 1025 30.27 854 25.22 18.9 65.9 22 -3.3 26
14:20 1025 30.27 854 25.22 18.3 64.9 21 -4 24.8
14:25 1025 30.27 854 25.22 18 64.4 23 -3.3 26.1
14:30 1025 30.27 854 25.22 18.6 65.4 22 -3.5 25.7
14:35 1025 30.27 854 25.22 18.7 65.7 24 -2.2 28
14:40 1025 30.27 854 25.22 18.5 65.2 21 -3.9 24.9
14:45 1025 30.27 854 25.22 18.4 65.1 23 -3 26.7
14:50 1025 30.27 854 25.22 18.5 65.2 24 -2.3 27.8
14:55 1025 30.27 854 25.22 18.8 65.8 23 -2.8 27
15:00 1025 30.27 854 25.22 17.7 63.8 23 -3.5 25.8
15:05 1025 30.27 854 25.22 17.8 64.1 23 -3.2 26.2
15:10 1025 30.27 854 25.22 18.3 65 23 -3.2 26.3
15:15 1025 30.27 854 25.22 18.4 65.1 23 -3.1 26.3
15:20 1025 30.27 854 25.22 17.5 63.5 25 -2.8 27
15:25 1025 30.27 854 25.22 17.1 62.8 24 -3.3 26.1
15:30 1025 30.27 854 25.22 17.8 64 24 -2.9 26.7
15:35 1025 30.27 854 25.22 17.7 63.8 23 -3.4 25.8
15:40 1025 30.27 854 25.22 17.7 63.8 24 -3 26.6
15:45 1024 30.24 854 25.22 18 64.3 21 -4.5 23.9
15:50 1024 30.24 854 25.22 18.4 65.1 22 -3.3 26
15:55 1024 30.24 854 25.22 18.4 65.2 21 -4.3 24.3
16:00 1024 30.24 854 25.22 18.9 66 21 -3.7 25.3
16:05 1024 30.24 853 25.19 18.5 65.4 21 -4.2 24.5
16:10 1024 30.24 853 25.19 18.5 65.2 21 -4.3 24.2
16:15 1024 30.24 853 25.19 17.8 64 21 -4.8 23.4
16:20 1024 30.24 853 25.19 17.8 64 20 -5.2 22.6
16:25 1024 30.24 853 25.19 18.4 65.2 21 -4.3 24.2
16:30 1024 30.24 853 25.19 18.5 65.3 21 -4 24.8
16:35 1024 30.24 853 25.19 18.6 65.4 21 -4.1 24.6
16:40 1024 30.24 853 25.19 18.6 65.6 20 -4.4 24
16:45 1024 30.24 853 25.19 18.8 65.9 21 -4.1 24.6
16:50 1024 30.24 853 25.19 18.7 65.7 20 -4.3 24.2
16:55 1024 30.24 853 25.19 18.8 65.9 20 -4.4 24.1
17:00 1024 30.24 853 25.19 18.7 65.6 20 -4.5 24
17:05 1024 30.24 853 25.19 18.7 65.6 20 -5 23.1
17:10 1024 30.24 853 25.19 18.3 64.9 20 -4.6 23.7
17:15 1024 30.24 853 25.19 18.6 65.4 21 -4 24.9
17:20 1024 30.24 853 25.19 18.8 65.9 20 -4.3 24.2
17:25 1024 30.24 853 25.19 18.9 66.1 21 -3.9 25
17:30 1024 30.24 853 25.19 18.7 65.6 21 -4.2 24.4
17:35 1024 30.24 853 25.19 18.1 64.5 21 -4.3 24.2
17:40 1024 30.24 853 25.19 18 64.3 22 -4 24.9
17:45 1024 30.24 853 25.19 17.6 63.6 23 -3.9 25
17:50 1024 30.24 853 25.19 17.2 62.9 22 -4.4 24.1
17:55 1024 30.24 853 25.19 17 62.5 23 -4.2 24.4
18:00 1024 30.24 853 25.19 16.7 62.1 23 -4.2 24.5
18:05 1024 30.24 853 25.19 17.3 63.2 22 -4.3 24.3
18:10 1024 30.24 853 25.19 17.5 63.6 23 -3.6 25.5
18:15 1024 30.24 853 25.19 17.2 62.9 25 -3.1 26.5
18:20 1024 30.24 853 25.19 16.8 62.3 24 -3.6 25.5
18:25 1024 30.24 853 25.19 16.8 62.2 25 -3.4 26
18:30 1024 30.24 853 25.19 16.8 62.2 24 -3.9 25.1
18:35 1024 30.24 853 25.19 16.8 62.3 24 -3.6 25.4
18:40 1024 30.24 853 25.19 16.9 62.3 25 -3.4 25.8
18:45 1024 30.24 853 25.19 16.9 62.4 24 -3.5 25.7
18:50 1024 30.24 853 25.19 16.8 62.3 24 -3.5 25.7
18:55 1024 30.24 853 25.19 16.6 61.9 26 -3.1 26.5
19:00 1024 30.24 853 25.19 16.4 61.5 25 -3.3 26
19:05 1024 30.24 853 25.19 16.4 61.4 26 -3 26.5
19:10 1024 30.24 853 25.19 16.4 61.5 27 -2.6 27.3
19:15 1024 30.24 853 25.19 16.2 61.2 27 -2.7 27.1
19:20 1024 30.24 853 25.19 16.2 61.1 27 -2.8 27
19:25 1024 30.24 853 25.19 16.2 61.1 28 -2.5 27.6
19:30 1024 30.24 853 25.19 16 60.9 28 -2.5 27.5
19:35 1024 30.24 853 25.19 15.9 60.7 28 -2.4 27.6
19:40 1024 30.24 853 25.19 15.9 60.6 29 -2.2 28.1
19:45 1024 30.24 853 25.19 15.8 60.4 30 -1.8 28.8
19:50 1024 30.24 853 25.19 15.7 60.2 30 -1.6 29
19:55 1024 30.24 853 25.19 15.6 60.1 30 -1.6 29.1
20:00 1024 30.24 853 25.19 15.5 59.9 31 -1.7 29
20:05 1024 30.24 853 25.19 15.3 59.5 34 -0.5 31.1
20:10 1024 30.24 853 25.19 14.7 58.5 39 0.8 33.4
20:15 1024 30.24 853 25.19 13.8 56.9 41 0.9 33.5
20:20 1024 30.24 853 25.19 13.3 55.9 42 0.9 33.6
20:25 1024 30.24 853 25.19 12.8 55 44 0.8 33.5
20:30 1024 30.24 853 25.19 12.5 54.4 44 0.6 33.2
20:35 1024 30.24 853 25.19 12.1 53.9 45 0.6 33.1
20:40 1024 30.24 853 25.19 11.8 53.3 46 0.6 33.2
20:45 1024 30.24 854 25.22 11.4 52.5 48 0.8 33.5
20:50 1024 30.24 854 25.22 11.2 52.1 49 0.8 33.5
20:55 1024 30.24 854 25.22 10.8 51.4 50 0.8 33.5
21:00 1024 30.24 854 25.22 10.6 51 51 0.9 33.7
21:05 1024 30.24 854 25.22 10.3 50.6 50 0.4 32.8
21:10 1024 30.24 854 25.22 10.3 50.5 49 0.2 32.3
21:15 1024 30.24 854 25.22 10.3 50.5 49 0.1 32.2
21:20 1024 30.24 854 25.22 10.3 50.5 49 0.1 32.2
21:25 1024 30.24 854 25.22 10.1 50.2 50 0.1 32.3
21:30 1024 30.24 854 25.22 10 49.9 50 0.1 32.2
21:35 1024 30.24 854 25.22 9.9 49.8 48 -0.6 31
21:40 1024 30.24 854 25.22 10 50 49 -0.2 31.7
21:45 1024 30.24 854 25.22 9.7 49.5 50 -0.2 31.7
21:50 1024 30.24 854 25.22 9.6 49.3 50 -0.3 31.4
21:55 1024 30.24 854 25.22 9.6 49.3 49 -0.5 31
22:00 1024 30.24 854 25.22 9.6 49.3 49 -0.5 31.1
22:05 1025 30.27 854 25.22 9.4 48.9 50 -0.5 31.1
22:10 1024 30.24 854 25.22 9.3 48.7 51 -0.4 31.4
22:15 1024 30.24 854 25.22 9 48.3 51 -0.5 31.1
22:20 1024 30.24 854 25.22 9 48.1 51 -0.5 31.1
22:25 1024 30.24 854 25.22 8.9 48 52 -0.4 31.3
22:30 1024 30.24 854 25.22 8.8 47.9 52 -0.6 31
22:35 1024 30.24 854 25.22 9 48.2 51 -0.7 30.8
22:40 1024 30.24 854 25.22 9 48.1 52 -0.4 31.3
22:45 1024 30.24 854 25.22 8.7 47.7 51 -0.7 30.7
22:50 1024 30.24 854 25.22 8.8 47.8 51 -0.6 30.8
22:55 1024 30.24 854 25.22 8.6 47.5 53 -0.5 31.2
23:00 1024 30.24 854 25.22 8.5 47.3 52 -0.7 30.7
23:05 1024 30.24 854 25.22 8.4 47.1 54 -0.4 31.2
23:10 1024 30.24 854 25.22 8.2 46.7 54 -0.5 31.1
23:15 1024 30.24 854 25.22 8 46.4 55 -0.4 31.4
23:20 1024 30.24 854 25.22 7.9 46.3 55 -0.4 31.2
23:25 1024 30.24 854 25.22 8 46.3 55 -0.5 31
23:30 1024 30.24 854 25.22 8 46.4 54 -0.7 30.8
23:35 1024 30.24 854 25.22 8.3 46.9 53 -0.7 30.7
23:40 1024 30.24 854 25.22 8.4 47 53 -0.6 30.9
23:45 1025 30.27 854 25.22 8.3 47 53 -0.6 30.9
23:50 1024 30.24 854 25.22 8.4 47.1 52 -0.9 30.4
23:55 1024 30.24 854 25.22 8.6 47.4 52 -0.7 30.7
24:00 1025 30.27 854 25.22 8.6 47.6 52 -0.7 30.7